sensor_id;sensor_type;location;lat;lon;timestamp;P1;durP1;ratioP1;P2;durP2;ratioP2
828;SDS011;396;52.558;13.188;2022-10-16T00:00:35;4.73;;;1.10;;
828;SDS011;396;52.558;13.188;2022-10-16T00:03:04;4.27;;;1.67;;
828;SDS011;396;52.558;13.188;2022-10-16T00:05:31;4.17;;;1.57;;
828;SDS011;396;52.558;13.188;2022-10-16T00:07:59;4.70;;;1.53;;
828;SDS011;396;52.558;13.188;2022-10-16T00:10:25;4.80;;;1.60;;
828;SDS011;396;52.558;13.188;2022-10-16T00:12:52;4.67;;;1.60;;
828;SDS011;396;52.558;13.188;2022-10-16T00:15:18;4.03;;;1.30;;
828;SDS011;396;52.558;13.188;2022-10-16T00:17:45;4.17;;;1.53;;
828;SDS011;396;52.558;13.188;2022-10-16T00:20:13;4.33;;;1.37;;
828;SDS011;396;52.558;13.188;2022-10-16T00:22:39;4.90;;;1.20;;
828;SDS011;396;52.558;13.188;2022-10-16T00:25:06;4.70;;;1.47;;
828;SDS011;396;52.558;13.188;2022-10-16T00:27:33;4.30;;;1.33;;
828;SDS011;396;52.558;13.188;2022-10-16T00:29:59;3.60;;;1.13;;
828;SDS011;396;52.558;13.188;2022-10-16T00:32:26;4.60;;;1.50;;
828;SDS011;396;52.558;13.188;2022-10-16T00:34:52;3.63;;;0.93;;
828;SDS011;396;52.558;13.188;2022-10-16T00:37:20;5.53;;;1.50;;
828;SDS011;396;52.558;13.188;2022-10-16T00:39:47;4.47;;;1.23;;
828;SDS011;396;52.558;13.188;2022-10-16T00:42:14;4.03;;;1.30;;
828;SDS011;396;52.558;13.188;2022-10-16T00:44:43;4.47;;;1.60;;
828;SDS011;396;52.558;13.188;2022-10-16T00:47:13;3.20;;;0.77;;
828;SDS011;396;52.558;13.188;2022-10-16T00:49:43;3.67;;;1.07;;
828;SDS011;396;52.558;13.188;2022-10-16T00:52:10;8.60;;;1.60;;
828;SDS011;396;52.558;13.188;2022-10-16T00:54:39;3.50;;;1.00;;
828;SDS011;396;52.558;13.188;2022-10-16T00:57:06;3.93;;;1.07;;
828;SDS011;396;52.558;13.188;2022-10-16T00:59:33;3.50;;;1.10;;
828;SDS011;396;52.558;13.188;2022-10-16T01:02:03;3.90;;;1.30;;
828;SDS011;396;52.558;13.188;2022-10-16T01:04:31;6.73;;;1.30;;
828;SDS011;396;52.558;13.188;2022-10-16T01:07:02;9.70;;;2.00;;
828;SDS011;396;52.558;13.188;2022-10-16T01:09:37;4.50;;;1.10;;
828;SDS011;396;52.558;13.188;2022-10-16T01:12:15;3.50;;;1.03;;
828;SDS011;396;52.558;13.188;2022-10-16T01:14:48;4.00;;;1.30;;
828;SDS011;396;52.558;13.188;2022-10-16T01:17:20;6.30;;;1.57;;
828;SDS011;396;52.558;13.188;2022-10-16T01:19:59;4.23;;;1.20;;
828;SDS011;396;52.558;13.188;2022-10-16T01:22:33;3.87;;;1.20;;
828;SDS011;396;52.558;13.188;2022-10-16T01:25:08;4.43;;;1.03;;
828;SDS011;396;52.558;13.188;2022-10-16T01:27:43;7.70;;;1.10;;
828;SDS011;396;52.558;13.188;2022-10-16T01:30:15;3.40;;;1.00;;
828;SDS011;396;52.558;13.188;2022-10-16T01:32:48;4.23;;;1.20;;
828;SDS011;396;52.558;13.188;2022-10-16T01:35:20;3.80;;;0.97;;
828;SDS011;396;52.558;13.188;2022-10-16T01:37:50;3.37;;;0.93;;
828;SDS011;396;52.558;13.188;2022-10-16T01:40:20;3.57;;;1.07;;
828;SDS011;396;52.558;13.188;2022-10-16T01:42:52;3.40;;;0.83;;
828;SDS011;396;52.558;13.188;2022-10-16T01:45:22;3.70;;;1.13;;
828;SDS011;396;52.558;13.188;2022-10-16T01:47:49;3.80;;;1.10;;
828;SDS011;396;52.558;13.188;2022-10-16T01:50:18;4.70;;;1.33;;
828;SDS011;396;52.558;13.188;2022-10-16T01:52:48;3.70;;;1.40;;
828;SDS011;396;52.558;13.188;2022-10-16T01:55:18;3.53;;;1.00;;
828;SDS011;396;52.558;13.188;2022-10-16T01:57:58;3.53;;;1.17;;
828;SDS011;396;52.558;13.188;2022-10-16T02:00:27;3.50;;;1.03;;
828;SDS011;396;52.558;13.188;2022-10-16T02:02:56;4.23;;;1.30;;
828;SDS011;396;52.558;13.188;2022-10-16T02:05:28;6.37;;;1.37;;
828;SDS011;396;52.558;13.188;2022-10-16T02:07:58;3.83;;;0.97;;
828;SDS011;396;52.558;13.188;2022-10-16T02:10:25;5.13;;;1.53;;
828;SDS011;396;52.558;13.188;2022-10-16T02:12:56;3.63;;;1.00;;
828;SDS011;396;52.558;13.188;2022-10-16T02:15:26;3.30;;;0.80;;
828;SDS011;396;52.558;13.188;2022-10-16T02:17:53;3.47;;;0.80;;
828;SDS011;396;52.558;13.188;2022-10-16T02:20:19;3.13;;;0.73;;
828;SDS011;396;52.558;13.188;2022-10-16T02:22:51;4.63;;;1.30;;
828;SDS011;396;52.558;13.188;2022-10-16T02:25:22;3.77;;;1.00;;
828;SDS011;396;52.558;13.188;2022-10-16T02:27:53;3.57;;;1.10;;
828;SDS011;396;52.558;13.188;2022-10-16T02:30:25;4.23;;;1.47;;
828;SDS011;396;52.558;13.188;2022-10-16T02:32:56;4.10;;;1.20;;
828;SDS011;396;52.558;13.188;2022-10-16T02:35:25;3.13;;;0.80;;
828;SDS011;396;52.558;13.188;2022-10-16T02:37:53;3.50;;;1.13;;
828;SDS011;396;52.558;13.188;2022-10-16T02:40:20;3.67;;;1.00;;
828;SDS011;396;52.558;13.188;2022-10-16T02:42:49;3.70;;;1.20;;
828;SDS011;396;52.558;13.188;2022-10-16T02:45:17;4.00;;;1.20;;
828;SDS011;396;52.558;13.188;2022-10-16T02:47:45;4.00;;;1.20;;
828;SDS011;396;52.558;13.188;2022-10-16T02:50:12;3.30;;;1.03;;
828;SDS011;396;52.558;13.188;2022-10-16T02:52:39;3.77;;;0.73;;
828;SDS011;396;52.558;13.188;2022-10-16T02:55:05;3.80;;;1.10;;
828;SDS011;396;52.558;13.188;2022-10-16T02:57:32;3.60;;;1.03;;
828;SDS011;396;52.558;13.188;2022-10-16T02:59:59;3.60;;;0.93;;
828;SDS011;396;52.558;13.188;2022-10-16T03:02:25;3.60;;;1.00;;
828;SDS011;396;52.558;13.188;2022-10-16T03:04:53;5.73;;;1.37;;
828;SDS011;396;52.558;13.188;2022-10-16T03:07:19;3.83;;;1.07;;
828;SDS011;396;52.558;13.188;2022-10-16T03:09:46;4.00;;;1.50;;
828;SDS011;396;52.558;13.188;2022-10-16T03:12:12;3.53;;;0.93;;
828;SDS011;396;52.558;13.188;2022-10-16T03:14:39;3.60;;;1.10;;
828;SDS011;396;52.558;13.188;2022-10-16T03:17:05;3.60;;;1.20;;
828;SDS011;396;52.558;13.188;2022-10-16T03:19:32;4.50;;;1.30;;
828;SDS011;396;52.558;13.188;2022-10-16T03:22:01;3.97;;;1.07;;
828;SDS011;396;52.558;13.188;2022-10-16T03:24:27;3.80;;;0.83;;
828;SDS011;396;52.558;13.188;2022-10-16T03:26:53;3.20;;;0.63;;
828;SDS011;396;52.558;13.188;2022-10-16T03:29:20;3.90;;;1.10;;
828;SDS011;396;52.558;13.188;2022-10-16T03:31:46;3.60;;;1.00;;
828;SDS011;396;52.558;13.188;2022-10-16T03:34:14;4.13;;;1.27;;
828;SDS011;396;52.558;13.188;2022-10-16T03:36:40;3.87;;;0.87;;
828;SDS011;396;52.558;13.188;2022-10-16T03:39:08;3.80;;;1.00;;
828;SDS011;396;52.558;13.188;2022-10-16T03:41:35;4.70;;;1.13;;
828;SDS011;396;52.558;13.188;2022-10-16T03:44:01;3.90;;;1.30;;
828;SDS011;396;52.558;13.188;2022-10-16T03:46:27;4.60;;;1.50;;
828;SDS011;396;52.558;13.188;2022-10-16T03:48:54;3.70;;;1.13;;
828;SDS011;396;52.558;13.188;2022-10-16T03:51:21;4.43;;;1.10;;
828;SDS011;396;52.558;13.188;2022-10-16T03:53:47;5.40;;;1.37;;
828;SDS011;396;52.558;13.188;2022-10-16T03:56:15;3.57;;;1.03;;
828;SDS011;396;52.558;13.188;2022-10-16T03:58:41;4.23;;;1.07;;
828;SDS011;396;52.558;13.188;2022-10-16T04:01:08;4.20;;;1.50;;
828;SDS011;396;52.558;13.188;2022-10-16T04:03:34;3.87;;;1.27;;
828;SDS011;396;52.558;13.188;2022-10-16T04:06:00;4.33;;;1.30;;
828;SDS011;396;52.558;13.188;2022-10-16T04:08:27;3.87;;;1.07;;
828;SDS011;396;52.558;13.188;2022-10-16T04:10:53;5.23;;;1.20;;
828;SDS011;396;52.558;13.188;2022-10-16T04:13:21;4.50;;;1.37;;
828;SDS011;396;52.558;13.188;2022-10-16T04:15:47;4.07;;;1.30;;
828;SDS011;396;52.558;13.188;2022-10-16T04:18:14;3.30;;;0.83;;
828;SDS011;396;52.558;13.188;2022-10-16T04:20:40;3.77;;;1.27;;
828;SDS011;396;52.558;13.188;2022-10-16T04:23:07;3.20;;;0.67;;
828;SDS011;396;52.558;13.188;2022-10-16T04:25:33;3.90;;;0.93;;
828;SDS011;396;52.558;13.188;2022-10-16T04:27:59;4.37;;;1.70;;
828;SDS011;396;52.558;13.188;2022-10-16T04:30:27;4.60;;;1.30;;
828;SDS011;396;52.558;13.188;2022-10-16T04:32:54;3.57;;;1.07;;
828;SDS011;396;52.558;13.188;2022-10-16T04:35:20;4.20;;;1.10;;
828;SDS011;396;52.558;13.188;2022-10-16T04:37:47;3.67;;;1.10;;
828;SDS011;396;52.558;13.188;2022-10-16T04:40:13;3.47;;;1.10;;
828;SDS011;396;52.558;13.188;2022-10-16T04:42:40;4.43;;;1.33;;
828;SDS011;396;52.558;13.188;2022-10-16T04:45:07;4.07;;;1.23;;
828;SDS011;396;52.558;13.188;2022-10-16T04:47:35;4.90;;;1.47;;
828;SDS011;396;52.558;13.188;2022-10-16T04:50:02;3.47;;;0.97;;
828;SDS011;396;52.558;13.188;2022-10-16T04:52:29;4.50;;;1.40;;
828;SDS011;396;52.558;13.188;2022-10-16T04:54:56;4.00;;;1.10;;
828;SDS011;396;52.558;13.188;2022-10-16T04:57:26;5.73;;;1.20;;
828;SDS011;396;52.558;13.188;2022-10-16T04:59:52;4.10;;;0.90;;
828;SDS011;396;52.558;13.188;2022-10-16T05:02:19;4.87;;;1.57;;
828;SDS011;396;52.558;13.188;2022-10-16T05:04:47;4.20;;;1.50;;
828;SDS011;396;52.558;13.188;2022-10-16T05:07:13;3.80;;;1.03;;
828;SDS011;396;52.558;13.188;2022-10-16T05:09:40;3.67;;;1.10;;
828;SDS011;396;52.558;13.188;2022-10-16T05:12:06;4.50;;;1.50;;
828;SDS011;396;52.558;13.188;2022-10-16T05:14:33;3.63;;;1.20;;
828;SDS011;396;52.558;13.188;2022-10-16T05:16:59;5.00;;;1.67;;
828;SDS011;396;52.558;13.188;2022-10-16T05:19:26;3.70;;;1.20;;
828;SDS011;396;52.558;13.188;2022-10-16T05:21:54;4.00;;;1.33;;
828;SDS011;396;52.558;13.188;2022-10-16T05:24:20;4.10;;;1.20;;
828;SDS011;396;52.558;13.188;2022-10-16T05:26:46;4.83;;;1.83;;
828;SDS011;396;52.558;13.188;2022-10-16T05:29:13;4.03;;;1.63;;
828;SDS011;396;52.558;13.188;2022-10-16T05:31:39;3.97;;;1.30;;
828;SDS011;396;52.558;13.188;2022-10-16T05:34:06;3.70;;;1.10;;
828;SDS011;396;52.558;13.188;2022-10-16T05:36:32;5.00;;;1.67;;
828;SDS011;396;52.558;13.188;2022-10-16T05:39:00;6.07;;;1.60;;
828;SDS011;396;52.558;13.188;2022-10-16T05:41:26;3.93;;;1.10;;
828;SDS011;396;52.558;13.188;2022-10-16T05:43:53;5.20;;;1.43;;
828;SDS011;396;52.558;13.188;2022-10-16T05:46:19;3.70;;;1.23;;
828;SDS011;396;52.558;13.188;2022-10-16T05:48:46;3.97;;;1.10;;
828;SDS011;396;52.558;13.188;2022-10-16T05:51:13;5.00;;;1.50;;
828;SDS011;396;52.558;13.188;2022-10-16T05:53:40;4.33;;;1.27;;
828;SDS011;396;52.558;13.188;2022-10-16T05:56:09;5.23;;;1.60;;
828;SDS011;396;52.558;13.188;2022-10-16T05:58:37;5.10;;;1.87;;
828;SDS011;396;52.558;13.188;2022-10-16T06:01:06;4.10;;;1.30;;
828;SDS011;396;52.558;13.188;2022-10-16T06:03:34;4.43;;;1.60;;
828;SDS011;396;52.558;13.188;2022-10-16T06:06:06;4.27;;;1.50;;
828;SDS011;396;52.558;13.188;2022-10-16T06:08:34;4.70;;;1.73;;
828;SDS011;396;52.558;13.188;2022-10-16T06:11:01;4.17;;;1.37;;
828;SDS011;396;52.558;13.188;2022-10-16T06:13:29;3.90;;;1.30;;
828;SDS011;396;52.558;13.188;2022-10-16T06:15:56;4.47;;;1.40;;
828;SDS011;396;52.558;13.188;2022-10-16T06:18:27;4.37;;;1.40;;
828;SDS011;396;52.558;13.188;2022-10-16T06:20:54;3.70;;;1.10;;
828;SDS011;396;52.558;13.188;2022-10-16T06:23:21;4.50;;;1.77;;
828;SDS011;396;52.558;13.188;2022-10-16T06:25:48;3.90;;;0.80;;
828;SDS011;396;52.558;13.188;2022-10-16T06:28:14;3.83;;;1.20;;
828;SDS011;396;52.558;13.188;2022-10-16T06:30:43;4.53;;;1.40;;
828;SDS011;396;52.558;13.188;2022-10-16T06:33:15;5.10;;;1.30;;
828;SDS011;396;52.558;13.188;2022-10-16T06:35:42;4.43;;;1.30;;
828;SDS011;396;52.558;13.188;2022-10-16T06:38:08;3.23;;;0.90;;
828;SDS011;396;52.558;13.188;2022-10-16T06:40:35;4.20;;;1.20;;
828;SDS011;396;52.558;13.188;2022-10-16T06:43:01;3.80;;;1.20;;
828;SDS011;396;52.558;13.188;2022-10-16T06:45:28;5.20;;;1.10;;
828;SDS011;396;52.558;13.188;2022-10-16T06:47:56;4.30;;;1.27;;
828;SDS011;396;52.558;13.188;2022-10-16T06:50:22;3.80;;;1.13;;
828;SDS011;396;52.558;13.188;2022-10-16T06:52:49;3.93;;;1.27;;
828;SDS011;396;52.558;13.188;2022-10-16T06:55:15;4.13;;;1.30;;
828;SDS011;396;52.558;13.188;2022-10-16T06:57:42;7.00;;;1.57;;
828;SDS011;396;52.558;13.188;2022-10-16T07:00:09;3.93;;;1.47;;
828;SDS011;396;52.558;13.188;2022-10-16T07:02:36;3.97;;;1.03;;
828;SDS011;396;52.558;13.188;2022-10-16T07:05:05;3.80;;;1.10;;
828;SDS011;396;52.558;13.188;2022-10-16T07:07:32;3.93;;;1.30;;
828;SDS011;396;52.558;13.188;2022-10-16T07:09:58;7.00;;;1.40;;
828;SDS011;396;52.558;13.188;2022-10-16T07:12:24;4.00;;;1.30;;
828;SDS011;396;52.558;13.188;2022-10-16T07:14:51;4.80;;;1.60;;
828;SDS011;396;52.558;13.188;2022-10-16T07:17:19;4.50;;;1.10;;
828;SDS011;396;52.558;13.188;2022-10-16T07:19:45;5.03;;;1.30;;
828;SDS011;396;52.558;13.188;2022-10-16T07:22:13;4.00;;;1.20;;
828;SDS011;396;52.558;13.188;2022-10-16T07:24:40;4.50;;;1.37;;
828;SDS011;396;52.558;13.188;2022-10-16T07:27:06;6.20;;;1.40;;
828;SDS011;396;52.558;13.188;2022-10-16T07:29:33;4.10;;;1.20;;
828;SDS011;396;52.558;13.188;2022-10-16T07:31:59;3.70;;;1.07;;
828;SDS011;396;52.558;13.188;2022-10-16T07:34:25;3.80;;;1.20;;
828;SDS011;396;52.558;13.188;2022-10-16T07:36:52;4.00;;;1.17;;
828;SDS011;396;52.558;13.188;2022-10-16T07:39:20;4.27;;;1.40;;
828;SDS011;396;52.558;13.188;2022-10-16T07:41:48;4.17;;;1.40;;
828;SDS011;396;52.558;13.188;2022-10-16T07:44:15;3.80;;;1.40;;
828;SDS011;396;52.558;13.188;2022-10-16T07:46:41;7.83;;;1.27;;
828;SDS011;396;52.558;13.188;2022-10-16T07:49:08;3.37;;;0.80;;
828;SDS011;396;52.558;13.188;2022-10-16T07:51:35;3.53;;;1.13;;
828;SDS011;396;52.558;13.188;2022-10-16T07:54:03;4.03;;;1.10;;
828;SDS011;396;52.558;13.188;2022-10-16T07:56:31;3.50;;;1.10;;
828;SDS011;396;52.558;13.188;2022-10-16T07:58:58;4.00;;;0.93;;
828;SDS011;396;52.558;13.188;2022-10-16T08:01:24;3.60;;;1.00;;
828;SDS011;396;52.558;13.188;2022-10-16T08:03:51;5.10;;;1.43;;
828;SDS011;396;52.558;13.188;2022-10-16T08:06:18;4.47;;;1.10;;
828;SDS011;396;52.558;13.188;2022-10-16T08:08:46;4.80;;;1.43;;
828;SDS011;396;52.558;13.188;2022-10-16T08:11:12;3.60;;;1.10;;
828;SDS011;396;52.558;13.188;2022-10-16T08:13:41;3.50;;;1.17;;
828;SDS011;396;52.558;13.188;2022-10-16T08:16:08;3.77;;;1.20;;
828;SDS011;396;52.558;13.188;2022-10-16T08:18:35;3.77;;;1.13;;
828;SDS011;396;52.558;13.188;2022-10-16T08:21:02;4.30;;;1.40;;
828;SDS011;396;52.558;13.188;2022-10-16T08:23:29;5.83;;;1.67;;
828;SDS011;396;52.558;13.188;2022-10-16T08:26:01;4.00;;;1.23;;
828;SDS011;396;52.558;13.188;2022-10-16T08:28:29;4.07;;;1.37;;
828;SDS011;396;52.558;13.188;2022-10-16T08:30:56;3.93;;;1.03;;
828;SDS011;396;52.558;13.188;2022-10-16T08:33:31;4.10;;;1.27;;
828;SDS011;396;52.558;13.188;2022-10-16T08:35:59;3.40;;;0.90;;
828;SDS011;396;52.558;13.188;2022-10-16T08:38:26;3.70;;;1.10;;
828;SDS011;396;52.558;13.188;2022-10-16T08:40:52;3.47;;;1.00;;
828;SDS011;396;52.558;13.188;2022-10-16T08:43:34;4.07;;;1.30;;
828;SDS011;396;52.558;13.188;2022-10-16T08:46:24;7.20;;;1.00;;
828;SDS011;396;52.558;13.188;2022-10-16T08:49:01;3.80;;;1.10;;
828;SDS011;396;52.558;13.188;2022-10-16T08:51:29;3.63;;;1.13;;
828;SDS011;396;52.558;13.188;2022-10-16T08:53:58;4.27;;;1.10;;
828;SDS011;396;52.558;13.188;2022-10-16T08:56:27;5.13;;;1.27;;
828;SDS011;396;52.558;13.188;2022-10-16T08:58:54;3.10;;;0.70;;
828;SDS011;396;52.558;13.188;2022-10-16T09:01:21;4.47;;;1.30;;
828;SDS011;396;52.558;13.188;2022-10-16T09:03:54;3.53;;;1.00;;
828;SDS011;396;52.558;13.188;2022-10-16T09:06:41;4.93;;;1.20;;
828;SDS011;396;52.558;13.188;2022-10-16T09:09:19;3.80;;;1.03;;
828;SDS011;396;52.558;13.188;2022-10-16T09:12:01;5.07;;;1.43;;
828;SDS011;396;52.558;13.188;2022-10-16T09:14:42;3.70;;;1.10;;
828;SDS011;396;52.558;13.188;2022-10-16T09:17:22;3.80;;;1.00;;
828;SDS011;396;52.558;13.188;2022-10-16T09:20:00;3.60;;;1.10;;
828;SDS011;396;52.558;13.188;2022-10-16T09:22:39;3.30;;;0.80;;
828;SDS011;396;52.558;13.188;2022-10-16T09:25:10;4.10;;;1.03;;
828;SDS011;396;52.558;13.188;2022-10-16T09:27:38;3.10;;;0.90;;
828;SDS011;396;52.558;13.188;2022-10-16T09:30:10;4.97;;;1.33;;
828;SDS011;396;52.558;13.188;2022-10-16T09:32:38;3.30;;;0.97;;
828;SDS011;396;52.558;13.188;2022-10-16T09:35:09;3.40;;;0.87;;
828;SDS011;396;52.558;13.188;2022-10-16T09:37:39;3.43;;;0.90;;
828;SDS011;396;52.558;13.188;2022-10-16T09:40:11;3.57;;;0.90;;
828;SDS011;396;52.558;13.188;2022-10-16T09:42:39;3.00;;;0.60;;
828;SDS011;396;52.558;13.188;2022-10-16T09:45:19;3.50;;;0.90;;
828;SDS011;396;52.558;13.188;2022-10-16T09:47:48;5.70;;;0.87;;
828;SDS011;396;52.558;13.188;2022-10-16T09:50:24;3.30;;;0.57;;
828;SDS011;396;52.558;13.188;2022-10-16T09:53:05;4.90;;;1.20;;
828;SDS011;396;52.558;13.188;2022-10-16T09:55:47;3.93;;;1.20;;
828;SDS011;396;52.558;13.188;2022-10-16T09:59:19;3.30;;;0.67;;
828;SDS011;396;52.558;13.188;2022-10-16T10:01:31;3.93;;;1.13;;
828;SDS011;396;52.558;13.188;2022-10-16T10:07:23;3.47;;;1.03;;
828;SDS011;396;52.558;13.188;2022-10-16T10:09:52;3.70;;;1.00;;
828;SDS011;396;52.558;13.188;2022-10-16T10:12:21;3.37;;;1.10;;
828;SDS011;396;52.558;13.188;2022-10-16T10:14:50;3.30;;;0.70;;
828;SDS011;396;52.558;13.188;2022-10-16T10:17:19;3.33;;;0.83;;
828;SDS011;396;52.558;13.188;2022-10-16T10:19:48;3.73;;;1.00;;
828;SDS011;396;52.558;13.188;2022-10-16T10:22:26;3.60;;;1.10;;
828;SDS011;396;52.558;13.188;2022-10-16T10:24:55;3.40;;;0.90;;
828;SDS011;396;52.558;13.188;2022-10-16T10:27:24;5.63;;;0.97;;
828;SDS011;396;52.558;13.188;2022-10-16T10:29:59;3.67;;;1.00;;
828;SDS011;396;52.558;13.188;2022-10-16T10:32:33;3.70;;;1.17;;
828;SDS011;396;52.558;13.188;2022-10-16T10:35:13;3.37;;;0.90;;
828;SDS011;396;52.558;13.188;2022-10-16T10:37:54;3.30;;;0.80;;
828;SDS011;396;52.558;13.188;2022-10-16T10:40:31;3.83;;;1.00;;
828;SDS011;396;52.558;13.188;2022-10-16T10:43:07;3.13;;;0.70;;
828;SDS011;396;52.558;13.188;2022-10-16T10:45:42;4.17;;;1.20;;
828;SDS011;396;52.558;13.188;2022-10-16T10:48:15;3.33;;;0.87;;
828;SDS011;396;52.558;13.188;2022-10-16T10:50:54;3.27;;;0.90;;
828;SDS011;396;52.558;13.188;2022-10-16T10:53:32;3.10;;;0.70;;
828;SDS011;396;52.558;13.188;2022-10-16T10:56:09;3.67;;;0.70;;
828;SDS011;396;52.558;13.188;2022-10-16T10:58:46;3.33;;;0.80;;
828;SDS011;396;52.558;13.188;2022-10-16T11:01:25;3.37;;;0.80;;
828;SDS011;396;52.558;13.188;2022-10-16T11:04:15;3.30;;;0.90;;
828;SDS011;396;52.558;13.188;2022-10-16T11:06:55;4.73;;;1.17;;
828;SDS011;396;52.558;13.188;2022-10-16T11:09:28;3.37;;;0.83;;
828;SDS011;396;52.558;13.188;2022-10-16T11:12:00;3.00;;;0.70;;
828;SDS011;396;52.558;13.188;2022-10-16T11:14:33;3.63;;;0.93;;
828;SDS011;396;52.558;13.188;2022-10-16T11:17:04;3.40;;;0.90;;
828;SDS011;396;52.558;13.188;2022-10-16T11:19:36;7.30;;;1.27;;
828;SDS011;396;52.558;13.188;2022-10-16T11:22:09;3.60;;;1.00;;
828;SDS011;396;52.558;13.188;2022-10-16T11:24:42;8.83;;;0.80;;
828;SDS011;396;52.558;13.188;2022-10-16T11:27:14;3.13;;;0.77;;
828;SDS011;396;52.558;13.188;2022-10-16T11:29:44;3.07;;;0.60;;
828;SDS011;396;52.558;13.188;2022-10-16T11:32:19;3.60;;;0.80;;
828;SDS011;396;52.558;13.188;2022-10-16T11:34:50;4.07;;;0.90;;
828;SDS011;396;52.558;13.188;2022-10-16T11:37:20;3.33;;;0.70;;
828;SDS011;396;52.558;13.188;2022-10-16T11:39:53;2.80;;;0.50;;
828;SDS011;396;52.558;13.188;2022-10-16T11:42:25;3.23;;;0.80;;
828;SDS011;396;52.558;13.188;2022-10-16T11:44:57;3.20;;;0.60;;
828;SDS011;396;52.558;13.188;2022-10-16T11:47:31;3.63;;;0.70;;
828;SDS011;396;52.558;13.188;2022-10-16T11:50:01;2.97;;;0.67;;
828;SDS011;396;52.558;13.188;2022-10-16T11:52:33;3.10;;;0.53;;
828;SDS011;396;52.558;13.188;2022-10-16T11:55:09;3.00;;;0.60;;
828;SDS011;396;52.558;13.188;2022-10-16T11:57:42;2.87;;;0.50;;
828;SDS011;396;52.558;13.188;2022-10-16T12:00:16;3.00;;;0.60;;
828;SDS011;396;52.558;13.188;2022-10-16T12:02:50;2.90;;;0.53;;
828;SDS011;396;52.558;13.188;2022-10-16T12:05:25;3.00;;;0.73;;
828;SDS011;396;52.558;13.188;2022-10-16T12:08:02;3.17;;;0.63;;
828;SDS011;396;52.558;13.188;2022-10-16T12:10:35;3.07;;;0.60;;
828;SDS011;396;52.558;13.188;2022-10-16T12:13:03;2.90;;;0.60;;
828;SDS011;396;52.558;13.188;2022-10-16T12:15:30;3.00;;;0.50;;
828;SDS011;396;52.558;13.188;2022-10-16T12:17:58;3.10;;;0.70;;
828;SDS011;396;52.558;13.188;2022-10-16T12:20:27;4.50;;;0.60;;
828;SDS011;396;52.558;13.188;2022-10-16T12:22:57;2.80;;;0.47;;
828;SDS011;396;52.558;13.188;2022-10-16T12:25:27;2.87;;;0.50;;
828;SDS011;396;52.558;13.188;2022-10-16T12:28:00;2.80;;;0.57;;
828;SDS011;396;52.558;13.188;2022-10-16T12:30:31;2.90;;;0.60;;
828;SDS011;396;52.558;13.188;2022-10-16T12:33:01;2.80;;;0.43;;
828;SDS011;396;52.558;13.188;2022-10-16T12:35:30;7.53;;;0.90;;
828;SDS011;396;52.558;13.188;2022-10-16T12:38:06;2.80;;;0.50;;
828;SDS011;396;52.558;13.188;2022-10-16T12:40:38;2.90;;;0.60;;
828;SDS011;396;52.558;13.188;2022-10-16T12:43:26;2.60;;;0.40;;
828;SDS011;396;52.558;13.188;2022-10-16T12:46:01;2.63;;;0.40;;
828;SDS011;396;52.558;13.188;2022-10-16T12:48:29;2.70;;;0.60;;
828;SDS011;396;52.558;13.188;2022-10-16T12:50:56;2.70;;;0.53;;
828;SDS011;396;52.558;13.188;2022-10-16T12:53:23;3.07;;;0.70;;
828;SDS011;396;52.558;13.188;2022-10-16T12:55:56;2.80;;;0.60;;
828;SDS011;396;52.558;13.188;2022-10-16T12:58:37;2.70;;;0.50;;
828;SDS011;396;52.558;13.188;2022-10-16T13:01:25;3.10;;;0.50;;
828;SDS011;396;52.558;13.188;2022-10-16T13:06:53;4.30;;;0.50;;
828;SDS011;396;52.558;13.188;2022-10-16T13:12:22;2.60;;;0.40;;
828;SDS011;396;52.558;13.188;2022-10-16T13:17:59;3.30;;;0.50;;
828;SDS011;396;52.558;13.188;2022-10-16T13:20:34;2.80;;;0.53;;
828;SDS011;396;52.558;13.188;2022-10-16T13:23:19;4.17;;;0.70;;
828;SDS011;396;52.558;13.188;2022-10-16T13:26:00;2.80;;;0.50;;
828;SDS011;396;52.558;13.188;2022-10-16T13:28:35;2.80;;;0.50;;
828;SDS011;396;52.558;13.188;2022-10-16T13:31:09;2.80;;;0.50;;
828;SDS011;396;52.558;13.188;2022-10-16T13:33:42;4.63;;;0.80;;
828;SDS011;396;52.558;13.188;2022-10-16T13:36:20;3.00;;;0.50;;
828;SDS011;396;52.558;13.188;2022-10-16T13:38:48;5.23;;;0.60;;
828;SDS011;396;52.558;13.188;2022-10-16T13:41:25;3.33;;;0.60;;
828;SDS011;396;52.558;13.188;2022-10-16T13:43:52;3.40;;;0.60;;
828;SDS011;396;52.558;13.188;2022-10-16T13:46:23;2.80;;;0.50;;
828;SDS011;396;52.558;13.188;2022-10-16T13:48:57;2.90;;;0.50;;
828;SDS011;396;52.558;13.188;2022-10-16T13:51:24;3.43;;;1.10;;
828;SDS011;396;52.558;13.188;2022-10-16T13:53:51;3.73;;;0.60;;
828;SDS011;396;52.558;13.188;2022-10-16T13:56:18;11.80;;;0.97;;
828;SDS011;396;52.558;13.188;2022-10-16T13:58:46;3.00;;;0.60;;
828;SDS011;396;52.558;13.188;2022-10-16T14:01:26;3.20;;;0.63;;
828;SDS011;396;52.558;13.188;2022-10-16T14:03:59;3.20;;;0.70;;
828;SDS011;396;52.558;13.188;2022-10-16T14:06:28;2.90;;;0.50;;
828;SDS011;396;52.558;13.188;2022-10-16T14:08:56;3.00;;;0.60;;
828;SDS011;396;52.558;13.188;2022-10-16T14:11:27;3.20;;;0.60;;
828;SDS011;396;52.558;13.188;2022-10-16T14:13:54;3.03;;;0.70;;
828;SDS011;396;52.558;13.188;2022-10-16T14:16:22;3.10;;;0.60;;
828;SDS011;396;52.558;13.188;2022-10-16T14:18:54;3.00;;;0.50;;
828;SDS011;396;52.558;13.188;2022-10-16T14:21:23;3.37;;;0.70;;
828;SDS011;396;52.558;13.188;2022-10-16T14:23:51;2.90;;;0.40;;
828;SDS011;396;52.558;13.188;2022-10-16T14:26:19;3.10;;;0.60;;
828;SDS011;396;52.558;13.188;2022-10-16T14:28:48;2.93;;;0.50;;
828;SDS011;396;52.558;13.188;2022-10-16T14:31:28;3.50;;;0.50;;
828;SDS011;396;52.558;13.188;2022-10-16T14:33:57;3.10;;;0.63;;
828;SDS011;396;52.558;13.188;2022-10-16T14:36:25;3.00;;;0.50;;
828;SDS011;396;52.558;13.188;2022-10-16T14:38:58;2.90;;;0.50;;
828;SDS011;396;52.558;13.188;2022-10-16T14:41:27;3.10;;;0.60;;
828;SDS011;396;52.558;13.188;2022-10-16T14:43:55;3.30;;;0.90;;
828;SDS011;396;52.558;13.188;2022-10-16T14:46:28;3.33;;;0.80;;
828;SDS011;396;52.558;13.188;2022-10-16T14:49:00;3.00;;;0.53;;
828;SDS011;396;52.558;13.188;2022-10-16T14:51:29;3.00;;;0.50;;
828;SDS011;396;52.558;13.188;2022-10-16T14:53:56;3.00;;;0.57;;
828;SDS011;396;52.558;13.188;2022-10-16T14:56:23;2.90;;;0.50;;
828;SDS011;396;52.558;13.188;2022-10-16T14:58:51;2.90;;;0.50;;
828;SDS011;396;52.558;13.188;2022-10-16T15:01:19;3.03;;;0.50;;
828;SDS011;396;52.558;13.188;2022-10-16T15:03:45;5.33;;;0.80;;
828;SDS011;396;52.558;13.188;2022-10-16T15:06:14;2.87;;;0.43;;
828;SDS011;396;52.558;13.188;2022-10-16T15:08:41;3.10;;;0.60;;
828;SDS011;396;52.558;13.188;2022-10-16T15:11:09;2.80;;;0.40;;
828;SDS011;396;52.558;13.188;2022-10-16T15:13:37;4.07;;;0.70;;
828;SDS011;396;52.558;13.188;2022-10-16T15:16:04;3.07;;;0.50;;
828;SDS011;396;52.558;13.188;2022-10-16T15:18:33;3.70;;;0.60;;
828;SDS011;396;52.558;13.188;2022-10-16T15:20:59;3.33;;;0.60;;
828;SDS011;396;52.558;13.188;2022-10-16T15:23:27;3.20;;;0.60;;
828;SDS011;396;52.558;13.188;2022-10-16T15:25:54;3.00;;;0.67;;
828;SDS011;396;52.558;13.188;2022-10-16T15:28:22;3.00;;;0.57;;
828;SDS011;396;52.558;13.188;2022-10-16T15:30:49;3.20;;;0.60;;
828;SDS011;396;52.558;13.188;2022-10-16T15:33:17;3.17;;;0.70;;
828;SDS011;396;52.558;13.188;2022-10-16T15:35:46;3.17;;;0.70;;
828;SDS011;396;52.558;13.188;2022-10-16T15:38:14;3.20;;;0.67;;
828;SDS011;396;52.558;13.188;2022-10-16T15:40:42;3.40;;;0.53;;
828;SDS011;396;52.558;13.188;2022-10-16T15:43:08;2.80;;;0.50;;
828;SDS011;396;52.558;13.188;2022-10-16T15:45:36;3.53;;;0.50;;
828;SDS011;396;52.558;13.188;2022-10-16T15:48:03;3.40;;;0.87;;
828;SDS011;396;52.558;13.188;2022-10-16T15:50:30;3.50;;;0.83;;
828;SDS011;396;52.558;13.188;2022-10-16T15:52:58;3.30;;;0.70;;
828;SDS011;396;52.558;13.188;2022-10-16T15:55:24;3.10;;;0.60;;
828;SDS011;396;52.558;13.188;2022-10-16T15:57:52;3.00;;;0.53;;